sensor_id;sensor_type;location;lat;lon;timestamp;temperature;humidity
65378;SHT31;51982;51.042;13.806;2022-08-01T00:01:44;24.82;60.73
65378;SHT31;51982;51.042;13.806;2022-08-01T00:04:09;24.82;60.77
65378;SHT31;51982;51.042;13.806;2022-08-01T00:06:35;24.82;60.87
65378;SHT31;51982;51.042;13.806;2022-08-01T00:09:00;24.82;61.02
65378;SHT31;51982;51.042;13.806;2022-08-01T00:11:25;24.80;61.09
65378;SHT31;51982;51.042;13.806;2022-08-01T00:13:51;24.78;61.17
65378;SHT31;51982;51.042;13.806;2022-08-01T00:16:16;24.78;61.21
65378;SHT31;51982;51.042;13.806;2022-08-01T00:18:41;24.77;61.25
65378;SHT31;51982;51.042;13.806;2022-08-01T00:21:07;24.72;61.38
65378;SHT31;51982;51.042;13.806;2022-08-01T00:23:32;24.70;61.53
65378;SHT31;51982;51.042;13.806;2022-08-01T00:25:58;24.68;61.70
65378;SHT31;51982;51.042;13.806;2022-08-01T00:28:23;24.68;61.72
65378;SHT31;51982;51.042;13.806;2022-08-01T00:30:48;24.63;61.92
65378;SHT31;51982;51.042;13.806;2022-08-01T00:33:13;24.60;61.97
65378;SHT31;51982;51.042;13.806;2022-08-01T00:35:39;24.57;62.04
65378;SHT31;51982;51.042;13.806;2022-08-01T00:38:04;24.56;62.13
65378;SHT31;51982;51.042;13.806;2022-08-01T00:40:29;24.54;62.28
65378;SHT31;51982;51.042;13.806;2022-08-01T00:42:54;24.53;62.35
65378;SHT31;51982;51.042;13.806;2022-08-01T00:45:20;24.47;62.46
65378;SHT31;51982;51.042;13.806;2022-08-01T00:47:45;24.44;62.53
65378;SHT31;51982;51.042;13.806;2022-08-01T00:50:10;24.40;62.60
65378;SHT31;51982;51.042;13.806;2022-08-01T00:52:36;24.36;62.73
65378;SHT31;51982;51.042;13.806;2022-08-01T00:55:05;24.31;62.83
65378;SHT31;51982;51.042;13.806;2022-08-01T00:57:30;24.24;62.96
65378;SHT31;51982;51.042;13.806;2022-08-01T00:59:55;24.19;63.08
65378;SHT31;51982;51.042;13.806;2022-08-01T01:02:21;24.14;63.21
65378;SHT31;51982;51.042;13.806;2022-08-01T01:04:46;24.09;63.36
65378;SHT31;51982;51.042;13.806;2022-08-01T01:07:17;24.06;63.52
65378;SHT31;51982;51.042;13.806;2022-08-01T01:09:48;24.02;63.62
65378;SHT31;51982;51.042;13.806;2022-08-01T01:12:24;23.98;64.07
65378;SHT31;51982;51.042;13.806;2022-08-01T01:15:34;23.90;64.73
65378;SHT31;51982;51.042;13.806;2022-08-01T01:18:04;23.90;63.95
65378;SHT31;51982;51.042;13.806;2022-08-01T01:20:35;23.89;64.04
65378;SHT31;51982;51.042;13.806;2022-08-01T01:26:07;23.79;64.97
65378;SHT31;51982;51.042;13.806;2022-08-01T01:28:55;23.70;64.90
65378;SHT31;51982;51.042;13.806;2022-08-01T01:31:21;23.68;64.57
65378;SHT31;51982;51.042;13.806;2022-08-01T01:33:49;23.65;64.64
65378;SHT31;51982;51.042;13.806;2022-08-01T01:36:16;23.69;64.61
65378;SHT31;51982;51.042;13.806;2022-08-01T01:38:44;23.69;64.69
65378;SHT31;51982;51.042;13.806;2022-08-01T01:41:11;23.63;64.74
65378;SHT31;51982;51.042;13.806;2022-08-01T01:43:38;23.59;64.96
65378;SHT31;51982;51.042;13.806;2022-08-01T01:46:06;23.59;65.02
65378;SHT31;51982;51.042;13.806;2022-08-01T01:48:33;23.59;65.04
65378;SHT31;51982;51.042;13.806;2022-08-01T01:51:00;23.58;65.04
65378;SHT31;51982;51.042;13.806;2022-08-01T01:53:27;23.59;65.05
65378;SHT31;51982;51.042;13.806;2022-08-01T01:55:55;23.59;65.10
65378;SHT31;51982;51.042;13.806;2022-08-01T01:58:22;23.57;65.04
65378;SHT31;51982;51.042;13.806;2022-08-01T02:00:50;23.55;65.00
65378;SHT31;51982;51.042;13.806;2022-08-01T02:03:17;23.54;64.97
65378;SHT31;51982;51.042;13.806;2022-08-01T02:05:43;23.54;64.89
65378;SHT31;51982;51.042;13.806;2022-08-01T02:08:10;23.55;64.90
65378;SHT31;51982;51.042;13.806;2022-08-01T02:10:37;23.55;64.97
65378;SHT31;51982;51.042;13.806;2022-08-01T02:13:05;23.49;65.18
65378;SHT31;51982;51.042;13.806;2022-08-01T02:15:33;23.52;65.19
65378;SHT31;51982;51.042;13.806;2022-08-01T02:17:59;23.48;65.26
65378;SHT31;51982;51.042;13.806;2022-08-01T02:20:27;23.52;65.32
65378;SHT31;51982;51.042;13.806;2022-08-01T02:23:03;23.49;65.50
65378;SHT31;51982;51.042;13.806;2022-08-01T02:25:39;23.54;65.33
65378;SHT31;51982;51.042;13.806;2022-08-01T02:28:09;23.52;65.23
65378;SHT31;51982;51.042;13.806;2022-08-01T02:30:38;23.51;65.23
65378;SHT31;51982;51.042;13.806;2022-08-01T02:33:12;23.55;65.47
65378;SHT31;51982;51.042;13.806;2022-08-01T02:35:42;23.51;65.32
65378;SHT31;51982;51.042;13.806;2022-08-01T02:38:10;23.54;65.40
65378;SHT31;51982;51.042;13.806;2022-08-01T02:40:38;23.52;65.38
65378;SHT31;51982;51.042;13.806;2022-08-01T02:43:05;23.48;65.39
65378;SHT31;51982;51.042;13.806;2022-08-01T02:45:31;23.51;65.37
65378;SHT31;51982;51.042;13.806;2022-08-01T02:48:06;23.49;65.45
65378;SHT31;51982;51.042;13.806;2022-08-01T02:50:33;23.52;65.26
65378;SHT31;51982;51.042;13.806;2022-08-01T02:53:00;23.52;65.23
65378;SHT31;51982;51.042;13.806;2022-08-01T02:55:27;23.57;65.14
65378;SHT31;51982;51.042;13.806;2022-08-01T02:57:53;23.55;65.15
65378;SHT31;51982;51.042;13.806;2022-08-01T03:00:19;23.49;65.21
65378;SHT31;51982;51.042;13.806;2022-08-01T03:02:46;23.52;65.33
65378;SHT31;51982;51.042;13.806;2022-08-01T03:05:13;23.51;65.55
65378;SHT31;51982;51.042;13.806;2022-08-01T03:07:41;23.52;65.61
65378;SHT31;51982;51.042;13.806;2022-08-01T03:10:07;23.51;65.78
65378;SHT31;51982;51.042;13.806;2022-08-01T03:12:33;23.49;65.85
65378;SHT31;51982;51.042;13.806;2022-08-01T03:15:00;23.51;65.92
65378;SHT31;51982;51.042;13.806;2022-08-01T03:17:28;23.49;65.88
65378;SHT31;51982;51.042;13.806;2022-08-01T03:19:54;23.48;65.81
65378;SHT31;51982;51.042;13.806;2022-08-01T03:22:23;23.48;65.84
65378;SHT31;51982;51.042;13.806;2022-08-01T03:24:52;23.48;65.87
65378;SHT31;51982;51.042;13.806;2022-08-01T03:27:19;23.47;65.88
65378;SHT31;51982;51.042;13.806;2022-08-01T03:29:46;23.47;65.89
65378;SHT31;51982;51.042;13.806;2022-08-01T03:32:12;23.44;65.88
65378;SHT31;51982;51.042;13.806;2022-08-01T03:34:40;23.42;65.87
65378;SHT31;51982;51.042;13.806;2022-08-01T03:37:11;23.38;65.94
65378;SHT31;51982;51.042;13.806;2022-08-01T03:39:50;23.32;66.13
65378;SHT31;51982;51.042;13.806;2022-08-01T03:42:22;23.31;66.14
65378;SHT31;51982;51.042;13.806;2022-08-01T03:44:53;23.24;66.43
65378;SHT31;51982;51.042;13.806;2022-08-01T03:47:21;23.27;66.29
65378;SHT31;51982;51.042;13.806;2022-08-01T03:49:51;23.29;66.34
65378;SHT31;51982;51.042;13.806;2022-08-01T05:09:28;23.66;67.11
65378;SHT31;51982;51.042;13.806;2022-08-01T05:12:20;23.66;66.86
65378;SHT31;51982;51.042;13.806;2022-08-01T05:15:03;23.66;67.55
65378;SHT31;51982;51.042;13.806;2022-08-01T05:17:31;23.68;67.11
65378;SHT31;51982;51.042;13.806;2022-08-01T05:20:33;23.61;68.18
65378;SHT31;51982;51.042;13.806;2022-08-01T05:23:19;23.63;67.30
65378;SHT31;51982;51.042;13.806;2022-08-01T05:26:04;23.63;69.56
65378;SHT31;51982;51.042;13.806;2022-08-01T05:28:30;23.51;71.11
65378;SHT31;51982;51.042;13.806;2022-08-01T05:31:27;23.51;71.55
65378;SHT31;51982;51.042;13.806;2022-08-01T05:34:21;23.57;71.99
65378;SHT31;51982;51.042;13.806;2022-08-01T05:37:10;23.59;71.64
65378;SHT31;51982;51.042;13.806;2022-08-01T05:39:43;23.62;70.76
65378;SHT31;51982;51.042;13.806;2022-08-01T05:42:13;23.76;70.58
65378;SHT31;51982;51.042;13.806;2022-08-01T05:47:22;24.13;69.60
65378;SHT31;51982;51.042;13.806;2022-08-01T05:49:47;24.33;69.30
65378;SHT31;51982;51.042;13.806;2022-08-01T06:13:40;24.26;69.09
65378;SHT31;51982;51.042;13.806;2022-08-01T06:33:14;24.10;69.19
65378;SHT31;51982;51.042;13.806;2022-08-01T06:59:14;24.03;70.29
65378;SHT31;51982;51.042;13.806;2022-08-01T08:52:27;25.56;70.82
65378;SHT31;51982;51.042;13.806;2022-08-01T09:55:51;26.87;65.71
65378;SHT31;51982;51.042;13.806;2022-08-01T09:58:24;26.92;65.75
65378;SHT31;51982;51.042;13.806;2022-08-01T10:01:44;26.99;65.11
65378;SHT31;51982;51.042;13.806;2022-08-01T10:04:20;27.10;64.60
65378;SHT31;51982;51.042;13.806;2022-08-01T10:09:47;26.98;64.64
65378;SHT31;51982;51.042;13.806;2022-08-01T10:12:18;27.15;64.04
65378;SHT31;51982;51.042;13.806;2022-08-01T10:14:46;27.30;63.50
65378;SHT31;51982;51.042;13.806;2022-08-01T10:17:15;27.36;63.39
65378;SHT31;51982;51.042;13.806;2022-08-01T10:19:52;27.39;62.82
65378;SHT31;51982;51.042;13.806;2022-08-01T10:22:24;27.47;62.99
65378;SHT31;51982;51.042;13.806;2022-08-01T10:24:58;27.49;62.89
65378;SHT31;51982;51.042;13.806;2022-08-01T10:27:28;27.60;62.69
65378;SHT31;51982;51.042;13.806;2022-08-01T10:30:02;27.70;62.66
65378;SHT31;51982;51.042;13.806;2022-08-01T10:32:29;27.57;62.67
65378;SHT31;51982;51.042;13.806;2022-08-01T10:34:55;27.56;62.57
65378;SHT31;51982;51.042;13.806;2022-08-01T10:37:24;27.53;62.47
65378;SHT31;51982;51.042;13.806;2022-08-01T10:39:53;27.63;62.28
65378;SHT31;51982;51.042;13.806;2022-08-01T10:42:21;27.73;62.36
65378;SHT31;51982;51.042;13.806;2022-08-01T10:44:50;27.79;62.33
65378;SHT31;51982;51.042;13.806;2022-08-01T10:47:25;27.89;61.75
65378;SHT31;51982;51.042;13.806;2022-08-01T10:50:07;27.86;61.68
65378;SHT31;51982;51.042;13.806;2022-08-01T10:52:35;27.81;62.21
65378;SHT31;51982;51.042;13.806;2022-08-01T10:55:03;27.93;62.03
65378;SHT31;51982;51.042;13.806;2022-08-01T10:57:46;27.90;61.17
65378;SHT31;51982;51.042;13.806;2022-08-01T11:00:19;27.96;61.37
65378;SHT31;51982;51.042;13.806;2022-08-01T11:03:01;27.94;60.90
65378;SHT31;51982;51.042;13.806;2022-08-01T11:05:31;27.98;61.29
65378;SHT31;51982;51.042;13.806;2022-08-01T11:08:03;28.02;61.53
65378;SHT31;51982;51.042;13.806;2022-08-01T11:10:36;28.04;61.90
65378;SHT31;51982;51.042;13.806;2022-08-01T11:13:02;28.17;61.52
65378;SHT31;51982;51.042;13.806;2022-08-01T11:15:30;28.17;61.48
65378;SHT31;51982;51.042;13.806;2022-08-01T11:17:56;28.31;61.38
65378;SHT31;51982;51.042;13.806;2022-08-01T11:20:27;28.44;61.19
65378;SHT31;51982;51.042;13.806;2022-08-01T11:25:23;28.68;60.72
65378;SHT31;51982;51.042;13.806;2022-08-01T11:27:48;28.79;60.54
65378;SHT31;51982;51.042;13.806;2022-08-01T11:30:34;29.06;60.08
65378;SHT31;51982;51.042;13.806;2022-08-01T11:33:01;29.13;59.90
65378;SHT31;51982;51.042;13.806;2022-08-01T11:35:28;29.19;59.81
65378;SHT31;51982;51.042;13.806;2022-08-01T11:37:54;29.12;59.88
65378;SHT31;51982;51.042;13.806;2022-08-01T11:40:25;29.03;60.03
65378;SHT31;51982;51.042;13.806;2022-08-01T11:45:51;28.42;59.64
65378;SHT31;51982;51.042;13.806;2022-08-01T11:48:19;28.44;60.11
65378;SHT31;51982;51.042;13.806;2022-08-01T11:50:45;28.31;60.18
65378;SHT31;51982;51.042;13.806;2022-08-01T11:53:10;28.07;60.69
65378;SHT31;51982;51.042;13.806;2022-08-01T11:55:35;27.90;61.08
65378;SHT31;51982;51.042;13.806;2022-08-01T11:58:05;27.73;61.76
65378;SHT31;51982;51.042;13.806;2022-08-01T12:00:32;27.50;65.83
65378;SHT31;51982;51.042;13.806;2022-08-01T12:03:03;27.06;69.80
65378;SHT31;51982;51.042;13.806;2022-08-01T12:05:33;26.94;72.00
65378;SHT31;51982;51.042;13.806;2022-08-01T12:08:00;26.75;72.48
65378;SHT31;51982;51.042;13.806;2022-08-01T12:10:30;26.75;72.63
65378;SHT31;51982;51.042;13.806;2022-08-01T12:13:02;26.84;72.21
65378;SHT31;51982;51.042;13.806;2022-08-01T12:15:35;26.96;71.55
65378;SHT31;51982;51.042;13.806;2022-08-01T12:18:02;27.02;71.43
65378;SHT31;51982;51.042;13.806;2022-08-01T12:20:37;27.08;71.19
65378;SHT31;51982;51.042;13.806;2022-08-01T12:23:07;27.39;71.33
65378;SHT31;51982;51.042;13.806;2022-08-01T12:25:34;27.59;69.16
65378;SHT31;51982;51.042;13.806;2022-08-01T12:28:04;27.59;67.17
65378;SHT31;51982;51.042;13.806;2022-08-01T12:30:30;27.67;66.51
65378;SHT31;51982;51.042;13.806;2022-08-01T12:32:56;27.67;65.28
65378;SHT31;51982;51.042;13.806;2022-08-01T12:35:24;27.80;65.41
65378;SHT31;51982;51.042;13.806;2022-08-01T12:37:58;27.74;64.33
65378;SHT31;51982;51.042;13.806;2022-08-01T12:40:28;27.73;64.77
65378;SHT31;51982;51.042;13.806;2022-08-01T12:42:56;27.76;64.09
65378;SHT31;51982;51.042;13.806;2022-08-01T12:45:25;27.71;63.28
65378;SHT31;51982;51.042;13.806;2022-08-01T12:47:52;27.71;63.43
65378;SHT31;51982;51.042;13.806;2022-08-01T12:50:21;27.66;63.19
65378;SHT31;51982;51.042;13.806;2022-08-01T12:52:47;27.71;62.99
65378;SHT31;51982;51.042;13.806;2022-08-01T12:55:28;27.87;62.59
65378;SHT31;51982;51.042;13.806;2022-08-01T12:58:10;28.01;61.75
65378;SHT31;51982;51.042;13.806;2022-08-01T13:00:36;28.01;61.87
65378;SHT31;51982;51.042;13.806;2022-08-01T13:03:15;27.98;61.60
65378;SHT31;51982;51.042;13.806;2022-08-01T13:05:55;28.01;60.86
65378;SHT31;51982;51.042;13.806;2022-08-01T13:11:02;28.05;59.67
65378;SHT31;51982;51.042;13.806;2022-08-01T13:13:37;28.15;59.24
65378;SHT31;51982;51.042;13.806;2022-08-01T13:16:04;28.18;59.98
65378;SHT31;51982;51.042;13.806;2022-08-01T13:18:32;28.11;60.06
65378;SHT31;51982;51.042;13.806;2022-08-01T13:21:20;28.01;58.79
65378;SHT31;51982;51.042;13.806;2022-08-01T13:24:09;28.17;58.48
65378;SHT31;51982;51.042;13.806;2022-08-01T13:26:41;28.34;58.48
65378;SHT31;51982;51.042;13.806;2022-08-01T13:29:08;28.47;58.30
65378;SHT31;51982;51.042;13.806;2022-08-01T13:31:35;28.47;58.28
65378;SHT31;51982;51.042;13.806;2022-08-01T13:34:01;28.35;58.61
65378;SHT31;51982;51.042;13.806;2022-08-01T13:36:27;28.37;58.47
65378;SHT31;51982;51.042;13.806;2022-08-01T13:38:57;28.29;58.10
65378;SHT31;51982;51.042;13.806;2022-08-01T13:41:41;28.29;57.96
65378;SHT31;51982;51.042;13.806;2022-08-01T13:44:07;28.27;57.58
65378;SHT31;51982;51.042;13.806;2022-08-01T13:46:34;28.10;57.59
65378;SHT31;51982;51.042;13.806;2022-08-01T13:49:00;28.05;58.07
65378;SHT31;51982;51.042;13.806;2022-08-01T13:51:25;28.14;58.34
65378;SHT31;51982;51.042;13.806;2022-08-01T13:53:50;27.97;58.81
65378;SHT31;51982;51.042;13.806;2022-08-01T13:56:15;28.07;58.88
65378;SHT31;51982;51.042;13.806;2022-08-01T13:58:42;28.12;58.38
65378;SHT31;51982;51.042;13.806;2022-08-01T14:01:07;28.34;58.28
65378;SHT31;51982;51.042;13.806;2022-08-01T14:03:33;28.52;57.95
65378;SHT31;51982;51.042;13.806;2022-08-01T14:05:58;28.45;57.70
65378;SHT31;51982;51.042;13.806;2022-08-01T14:08:23;28.31;57.76
65378;SHT31;51982;51.042;13.806;2022-08-01T14:10:48;28.21;57.53
65378;SHT31;51982;51.042;13.806;2022-08-01T14:13:14;28.21;57.45
65378;SHT31;51982;51.042;13.806;2022-08-01T14:15:39;28.21;57.53
65378;SHT31;51982;51.042;13.806;2022-08-01T14:18:05;28.15;57.56
65378;SHT31;51982;51.042;13.806;2022-08-01T14:20:30;28.15;57.44
65378;SHT31;51982;51.042;13.806;2022-08-01T14:22:56;28.21;57.26
65378;SHT31;51982;51.042;13.806;2022-08-01T14:25:21;28.27;57.46
65378;SHT31;51982;51.042;13.806;2022-08-01T14:27:46;28.34;57.16
65378;SHT31;51982;51.042;13.806;2022-08-01T14:30:15;28.42;57.05
65378;SHT31;51982;51.042;13.806;2022-08-01T14:32:40;28.53;56.93
65378;SHT31;51982;51.042;13.806;2022-08-01T14:35:06;28.63;56.81
65378;SHT31;51982;51.042;13.806;2022-08-01T14:37:32;28.65;56.83
65378;SHT31;51982;51.042;13.806;2022-08-01T14:39:58;28.61;56.62
65378;SHT31;51982;51.042;13.806;2022-08-01T14:42:24;28.61;56.23
65378;SHT31;51982;51.042;13.806;2022-08-01T14:44:49;28.55;56.15
65378;SHT31;51982;51.042;13.806;2022-08-01T14:47:15;28.58;56.34
65378;SHT31;51982;51.042;13.806;2022-08-01T14:49:43;28.45;56.61
65378;SHT31;51982;51.042;13.806;2022-08-01T14:52:08;28.41;56.83
65378;SHT31;51982;51.042;13.806;2022-08-01T14:54:36;28.15;56.57
65378;SHT31;51982;51.042;13.806;2022-08-01T14:57:02;28.05;56.45
65378;SHT31;51982;51.042;13.806;2022-08-01T14:59:27;28.08;56.69
65378;SHT31;51982;51.042;13.806;2022-08-01T15:01:52;28.20;56.59
65378;SHT31;51982;51.042;13.806;2022-08-01T15:04:17;28.31;56.33
65378;SHT31;51982;51.042;13.806;2022-08-01T15:06:44;28.29;56.15
65378;SHT31;51982;51.042;13.806;2022-08-01T15:09:09;28.41;55.87
65378;SHT31;51982;51.042;13.806;2022-08-01T15:11:35;28.44;55.32
65378;SHT31;51982;51.042;13.806;2022-08-01T15:14:00;28.42;55.20
65378;SHT31;51982;51.042;13.806;2022-08-01T15:16:44;28.42;55.31
65378;SHT31;51982;51.042;13.806;2022-08-01T15:19:09;28.37;55.36
65378;SHT31;51982;51.042;13.806;2022-08-01T15:21:34;28.37;55.33
65378;SHT31;51982;51.042;13.806;2022-08-01T15:24:00;28.31;55.37
65378;SHT31;51982;51.042;13.806;2022-08-01T15:26:25;28.27;55.51
65378;SHT31;51982;51.042;13.806;2022-08-01T15:28:50;28.27;55.61
65378;SHT31;51982;51.042;13.806;2022-08-01T15:31:16;28.35;55.69
65378;SHT31;51982;51.042;13.806;2022-08-01T15:33:42;28.28;55.94
65378;SHT31;51982;51.042;13.806;2022-08-01T15:36:07;28.25;55.93
65378;SHT31;51982;51.042;13.806;2022-08-01T15:38:32;28.17;55.99
65378;SHT31;51982;51.042;13.806;2022-08-01T15:40:58;28.20;55.99
65378;SHT31;51982;51.042;13.806;2022-08-01T15:43:23;28.29;55.87
65378;SHT31;51982;51.042;13.806;2022-08-01T15:45:48;28.34;55.81
65378;SHT31;51982;51.042;13.806;2022-08-01T15:48:14;28.34;55.78
65378;SHT31;51982;51.042;13.806;2022-08-01T15:50:39;28.28;55.58
65378;SHT31;51982;51.042;13.806;2022-08-01T15:53:05;28.31;55.53
65378;SHT31;51982;51.042;13.806;2022-08-01T15:55:31;28.35;55.46
65378;SHT31;51982;51.042;13.806;2022-08-01T15:57:56;28.37;55.43
65378;SHT31;51982;51.042;13.806;2022-08-01T16:00:21;28.38;55.48
65378;SHT31;51982;51.042;13.806;2022-08-01T16:02:47;28.29;55.59
65378;SHT31;51982;51.042;13.806;2022-08-01T16:05:12;28.15;55.70
65378;SHT31;51982;51.042;13.806;2022-08-01T16:07:37;27.93;56.02
65378;SHT31;51982;51.042;13.806;2022-08-01T16:10:03;27.91;56.09
65378;SHT31;51982;51.042;13.806;2022-08-01T16:12:29;27.84;56.16
65378;SHT31;51982;51.042;13.806;2022-08-01T16:14:55;27.91;56.23
65378;SHT31;51982;51.042;13.806;2022-08-01T16:17:20;27.89;56.35
65378;SHT31;51982;51.042;13.806;2022-08-01T16:19:46;27.81;56.48
65378;SHT31;51982;51.042;13.806;2022-08-01T16:22:11;27.87;56.54
65378;SHT31;51982;51.042;13.806;2022-08-01T16:24:36;27.87;56.57
65378;SHT31;51982;51.042;13.806;2022-08-01T16:27:04;27.83;56.58
65378;SHT31;51982;51.042;13.806;2022-08-01T16:29:29;27.80;56.57
65378;SHT31;51982;51.042;13.806;2022-08-01T16:31:56;27.76;56.54
65378;SHT31;51982;51.042;13.806;2022-08-01T16:34:21;27.79;56.57
65378;SHT31;51982;51.042;13.806;2022-08-01T16:36:46;27.89;56.57
65378;SHT31;51982;51.042;13.806;2022-08-01T16:39:12;27.94;56.62
65378;SHT31;51982;51.042;13.806;2022-08-01T16:41:37;27.91;56.78
65378;SHT31;51982;51.042;13.806;2022-08-01T16:44:02;27.90;56.80
65378;SHT31;51982;51.042;13.806;2022-08-01T16:46:27;27.84;56.86
65378;SHT31;51982;51.042;13.806;2022-08-01T16:48:53;27.74;56.90
65378;SHT31;51982;51.042;13.806;2022-08-01T16:51:18;27.61;57.01
65378;SHT31;51982;51.042;13.806;2022-08-01T16:53:44;27.57;56.92
65378;SHT31;51982;51.042;13.806;2022-08-01T16:56:09;27.56;56.90
65378;SHT31;51982;51.042;13.806;2022-08-01T16:58:34;27.43;57.09
65378;SHT31;51982;51.042;13.806;2022-08-01T17:01:00;27.38;57.19
65378;SHT31;51982;51.042;13.806;2022-08-01T17:03:25;27.36;57.20
65378;SHT31;51982;51.042;13.806;2022-08-01T17:05:53;27.25;57.31
65378;SHT31;51982;51.042;13.806;2022-08-01T17:08:18;27.25;57.40
65378;SHT31;51982;51.042;13.806;2022-08-01T17:10:44;27.22;57.41
65378;SHT31;51982;51.042;13.806;2022-08-01T17:13:09;27.25;57.46
65378;SHT31;51982;51.042;13.806;2022-08-01T17:15:35;27.23;57.39
65378;SHT31;51982;51.042;13.806;2022-08-01T17:18:02;27.26;57.33
65378;SHT31;51982;51.042;13.806;2022-08-01T17:20:28;27.26;57.18
65378;SHT31;51982;51.042;13.806;2022-08-01T17:22:56;27.25;57.16
65378;SHT31;51982;51.042;13.806;2022-08-01T17:25:22;27.20;57.16
65378;SHT31;51982;51.042;13.806;2022-08-01T17:27:48;27.16;57.16
65378;SHT31;51982;51.042;13.806;2022-08-01T17:30:16;27.15;57.26
65378;SHT31;51982;51.042;13.806;2022-08-01T17:32:44;27.12;57.28
65378;SHT31;51982;51.042;13.806;2022-08-01T17:35:11;27.00;57.44
65378;SHT31;51982;51.042;13.806;2022-08-01T17:37:38;26.98;57.43
65378;SHT31;51982;51.042;13.806;2022-08-01T17:40:05;26.92;57.55
65378;SHT31;51982;51.042;13.806;2022-08-01T17:42:30;26.89;57.54
65378;SHT31;51982;51.042;13.806;2022-08-01T17:44:58;26.84;57.55
65378;SHT31;51982;51.042;13.806;2022-08-01T17:47:24;26.84;57.62
65378;SHT31;51982;51.042;13.806;2022-08-01T17:49:49;26.78;57.72
65378;SHT31;51982;51.042;13.806;2022-08-01T17:52:15;26.75;57.80
65378;SHT31;51982;51.042;13.806;2022-08-01T17:54:41;26.68;57.92
65378;SHT31;51982;51.042;13.806;2022-08-01T17:57:06;26.68;57.89
65378;SHT31;51982;51.042;13.806;2022-08-01T17:59:31;26.67;57.98
65378;SHT31;51982;51.042;13.806;2022-08-01T18:01:56;26.58;58.08
65378;SHT31;51982;51.042;13.806;2022-08-01T18:04:22;26.57;58.18
65378;SHT31;51982;51.042;13.806;2022-08-01T18:06:47;26.52;58.34
65378;SHT31;51982;51.042;13.806;2022-08-01T18:09:12;26.47;58.41
65378;SHT31;51982;51.042;13.806;2022-08-01T18:11:40;26.43;58.48
65378;SHT31;51982;51.042;13.806;2022-08-01T18:14:06;26.40;58.50
65378;SHT31;51982;51.042;13.806;2022-08-01T18:16:31;26.41;58.55
65378;SHT31;51982;51.042;13.806;2022-08-01T18:18:56;26.40;58.59
65378;SHT31;51982;51.042;13.806;2022-08-01T18:21:22;26.31;58.69
65378;SHT31;51982;51.042;13.806;2022-08-01T18:23:47;26.31;58.75
65378;SHT31;51982;51.042;13.806;2022-08-01T18:26:12;26.26;58.79
65378;SHT31;51982;51.042;13.806;2022-08-01T18:28:37;26.21;58.83
65378;SHT31;51982;51.042;13.806;2022-08-01T18:31:08;26.21;58.99
65378;SHT31;51982;51.042;13.806;2022-08-01T18:33:34;26.17;59.03
65378;SHT31;51982;51.042;13.806;2022-08-01T18:36:00;26.16;59.01
65378;SHT31;51982;51.042;13.806;2022-08-01T18:38:28;26.04;59.15
65378;SHT31;51982;51.042;13.806;2022-08-01T18:40:53;26.01;59.13
65378;SHT31;51982;51.042;13.806;2022-08-01T18:43:18;25.98;59.24
65378;SHT31;51982;51.042;13.806;2022-08-01T18:45:44;25.94;59.27
65378;SHT31;51982;51.042;13.806;2022-08-01T18:48:09;25.92;59.37
65378;SHT31;51982;51.042;13.806;2022-08-01T18:50:35;25.84;59.36
65378;SHT31;51982;51.042;13.806;2022-08-01T18:53:00;25.82;59.45
65378;SHT31;51982;51.042;13.806;2022-08-01T18:55:26;25.79;59.52
65378;SHT31;51982;51.042;13.806;2022-08-01T18:57:51;25.74;59.58
65378;SHT31;51982;51.042;13.806;2022-08-01T19:00:16;25.74;59.58
65378;SHT31;51982;51.042;13.806;2022-08-01T19:02:41;25.70;59.60
65378;SHT31;51982;51.042;13.806;2022-08-01T19:05:09;25.67;59.63
65378;SHT31;51982;51.042;13.806;2022-08-01T19:07:34;25.63;59.76
65378;SHT31;51982;51.042;13.806;2022-08-01T19:10:00;25.59;59.82
65378;SHT31;51982;51.042;13.806;2022-08-01T19:12:25;25.56;59.85
65378;SHT31;51982;51.042;13.806;2022-08-01T19:14:50;25.53;59.95
65378;SHT31;51982;51.042;13.806;2022-08-01T19:17:15;25.47;60.03
65378;SHT31;51982;51.042;13.806;2022-08-01T19:19:41;25.45;60.24
65378;SHT31;51982;51.042;13.806;2022-08-01T19:22:06;25.36;60.41
65378;SHT31;51982;51.042;13.806;2022-08-01T19:24:32;25.33;60.49
65378;SHT31;51982;51.042;13.806;2022-08-01T19:26:59;25.32;60.56
65378;SHT31;51982;51.042;13.806;2022-08-01T19:29:29;25.28;60.80
65378;SHT31;51982;51.042;13.806;2022-08-01T19:31:56;25.25;60.81
65378;SHT31;51982;51.042;13.806;2022-08-01T19:34:23;25.25;60.84
65378;SHT31;51982;51.042;13.806;2022-08-01T19:36:50;25.19;60.99
65378;SHT31;51982;51.042;13.806;2022-08-01T19:39:18;25.19;61.09
65378;SHT31;51982;51.042;13.806;2022-08-01T19:41:46;25.12;61.14
65378;SHT31;51982;51.042;13.806;2022-08-01T19:44:14;25.08;61.16
65378;SHT31;51982;51.042;13.806;2022-08-01T19:46:40;25.07;61.19
65378;SHT31;51982;51.042;13.806;2022-08-01T19:49:06;25.02;61.34
65378;SHT31;51982;51.042;13.806;2022-08-01T19:51:35;25.04;61.64
65378;SHT31;51982;51.042;13.806;2022-08-01T19:54:05;24.95;61.82
65378;SHT31;51982;51.042;13.806;2022-08-01T19:56:38;24.95;61.62
65378;SHT31;51982;51.042;13.806;2022-08-01T19:59:18;24.91;62.07
65378;SHT31;51982;51.042;13.806;2022-08-01T20:01:44;24.88;61.47
65378;SHT31;51982;51.042;13.806;2022-08-01T20:04:10;24.85;61.67
65378;SHT31;51982;51.042;13.806;2022-08-01T20:06:35;24.84;61.88
65378;SHT31;51982;51.042;13.806;2022-08-01T20:09:02;24.78;62.01
65378;SHT31;51982;51.042;13.806;2022-08-01T20:11:27;24.72;62.18
65378;SHT31;51982;51.042;13.806;2022-08-01T20:13:54;24.68;62.23
65378;SHT31;51982;51.042;13.806;2022-08-01T20:16:24;24.67;62.28
65378;SHT31;51982;51.042;13.806;2022-08-01T20:18:49;24.65;62.43
65378;SHT31;51982;51.042;13.806;2022-08-01T20:21:16;24.63;62.54
65378;SHT31;51982;51.042;13.806;2022-08-01T20:23:43;24.60;62.58
65378;SHT31;51982;51.042;13.806;2022-08-01T20:26:11;24.53;62.82
65378;SHT31;51982;51.042;13.806;2022-08-01T20:28:38;24.50;62.90
65378;SHT31;51982;51.042;13.806;2022-08-01T20:31:07;24.47;62.95
65378;SHT31;51982;51.042;13.806;2022-08-01T20:33:45;24.46;63.30
65378;SHT31;51982;51.042;13.806;2022-08-01T20:36:11;24.44;63.09
65378;SHT31;51982;51.042;13.806;2022-08-01T20:38:39;24.39;63.19
65378;SHT31;51982;51.042;13.806;2022-08-01T20:41:04;24.36;63.23
65378;SHT31;51982;51.042;13.806;2022-08-01T20:43:30;24.34;63.28
65378;SHT31;51982;51.042;13.806;2022-08-01T20:45:55;24.34;63.36
65378;SHT31;51982;51.042;13.806;2022-08-01T20:48:21;24.33;63.40
65378;SHT31;51982;51.042;13.806;2022-08-01T20:50:48;24.30;63.48